Time;durP1;ratioP1;P1;durP2;ratioP2;P2;SDS_P1;SDS_P2;PMS_P1;PMS_P2;Temp;Humidity;BMP_temperature;BMP_pressure;BME280_temperature;BME280_humidity;BME280_pressure;Samples;Min_cycle;Max_cycle;Signal;HPM_P1;HPM_P2
2022/08/23 00:01:46;;;;;;;0.85;0.80;;;;;;;;;;10360249;28;20016;-79
2022/08/23 00:06:53;;;;;;;1.48;0.90;;;;;;;;;;10356894;28;20045;-78
2022/08/23 00:12:06;;;;;;;1.25;0.88;;;;;;;;;;10389043;28;20080;-79
2022/08/23 00:17:13;;;;;;;2.45;1.00;;;;;;;;;;10356283;28;20477;-80
2022/08/23 00:22:16;;;;;;;1.17;0.80;;;;;;;;;;10360312;28;20042;-77
2022/08/23 00:27:20;;;;;;;1.58;0.80;;;;;;;;;;10356189;28;20042;-78
2022/08/23 00:32:26;;;;;;;1.40;0.88;;;;;;;;;;10360338;28;20038;-77
2022/08/23 00:37:31;;;;;;;2.00;1.05;;;;;;;;;;10359032;28;20037;-78
2022/08/23 00:48:09;;;;;;;3.00;1.25;;;;;;;;;;10350146;28;20034;-82
2022/08/23 00:53:17;;;;;;;1.65;1.00;;;;;;;;;;10381169;28;20093;-81
2022/08/23 00:58:22;;;;;;;1.27;0.95;;;;;;;;;;10380690;28;20042;-83
2022/08/23 01:03:30;;;;;;;1.25;0.70;;;;;;;;;;10371080;28;20054;-82
2022/08/23 01:08:35;;;;;;;1.08;0.80;;;;;;;;;;10391788;28;20037;-78
2022/08/23 01:13:43;;;;;;;1.47;0.93;;;;;;;;;;10408323;28;20049;-78
2022/08/23 01:18:49;;;;;;;2.20;1.00;;;;;;;;;;10353459;28;20046;-77
2022/08/23 01:23:57;;;;;;;0.93;0.70;;;;;;;;;;10369311;28;20148;-80
2022/08/23 01:29:02;;;;;;;0.82;0.82;;;;;;;;;;10374892;28;20070;-77
2022/08/23 01:34:10;;;;;;;2.97;0.90;;;;;;;;;;10378888;28;20554;-78
2022/08/23 01:39:14;;;;;;;1.73;1.05;;;;;;;;;;10385001;28;20044;-78
2022/08/23 01:44:18;;;;;;;3.97;1.10;;;;;;;;;;10396222;28;20141;-78
2022/08/23 01:49:22;;;;;;;3.88;1.10;;;;;;;;;;10386867;28;20038;-78
2022/08/23 01:54:28;;;;;;;0.98;0.85;;;;;;;;;;10372872;28;20231;-78
2022/08/23 01:59:32;;;;;;;1.02;0.82;;;;;;;;;;10410342;28;20061;-78
2022/08/23 02:04:36;;;;;;;1.90;0.95;;;;;;;;;;10402519;28;20505;-82
2022/08/23 02:09:41;;;;;;;0.95;0.80;;;;;;;;;;10377728;28;20082;-80
2022/08/23 02:14:47;;;;;;;1.38;1.00;;;;;;;;;;10407281;28;20402;-82
2022/08/23 02:19:56;;;;;;;1.58;1.00;;;;;;;;;;10383575;28;20042;-79
2022/08/23 02:25:01;;;;;;;2.20;0.85;;;;;;;;;;10375451;28;20056;-79
2022/08/23 02:30:05;;;;;;;1.60;0.90;;;;;;;;;;10376779;28;20429;-79
2022/08/23 02:35:09;;;;;;;1.13;0.90;;;;;;;;;;10416189;28;20049;-82
2022/08/23 02:40:14;;;;;;;1.27;0.82;;;;;;;;;;10376448;28;20118;-81
2022/08/23 02:45:18;;;;;;;1.55;0.82;;;;;;;;;;10384316;28;20046;-79
2022/08/23 02:50:24;;;;;;;1.50;0.90;;;;;;;;;;10372701;28;20045;-79
2022/08/23 02:55:29;;;;;;;1.08;0.88;;;;;;;;;;10370752;28;20045;-80
2022/08/23 03:00:33;;;;;;;1.13;0.80;;;;;;;;;;10383622;28;20041;-79
2022/08/23 03:05:38;;;;;;;2.15;1.02;;;;;;;;;;10424275;28;20543;-79
2022/08/23 03:10:44;;;;;;;1.88;1.00;;;;;;;;;;10360381;28;20231;-80
2022/08/23 03:15:48;;;;;;;;;;;;;;;;;;10371249;28;20645;-81
2022/08/23 03:20:51;;;;;;;1.00;0.70;;;;;;;;;;10385390;28;19971;-79
2022/08/23 03:25:57;;;;;;;3.40;1.15;;;;;;;;;;10374987;28;20076;-82
2022/08/23 03:31:03;;;;;;;0.98;0.80;;;;;;;;;;10367459;28;20044;-80
2022/08/23 03:36:12;;;;;;;2.45;1.13;;;;;;;;;;10366652;28;20461;-79
2022/08/23 03:41:17;;;;;;;1.33;1.05;;;;;;;;;;10397658;28;20083;-82
2022/08/23 03:46:22;;;;;;;2.35;1.20;;;;;;;;;;10398766;28;20124;-82
2022/08/23 03:51:33;;;;;;;0.98;0.90;;;;;;;;;;10397835;28;20072;-80
2022/08/23 03:56:50;;;;;;;1.73;1.00;;;;;;;;;;10397646;28;20049;-82
2022/08/23 04:01:53;;;;;;;1.30;1.00;;;;;;;;;;10431240;28;20034;-79
2022/08/23 04:06:57;;;;;;;1.27;1.17;;;;;;;;;;10398662;28;20041;-82
2022/08/23 04:12:02;;;;;;;1.38;0.85;;;;;;;;;;10399533;28;20774;-79
2022/08/23 04:17:05;;;;;;;2.00;1.02;;;;;;;;;;10397853;28;20037;-80
2022/08/23 04:22:12;;;;;;;3.13;1.27;;;;;;;;;;10397550;28;20041;-80
2022/08/23 04:27:18;;;;;;;2.30;1.30;;;;;;;;;;10397634;28;20498;-80
2022/08/23 04:32:23;;;;;;;1.65;1.10;;;;;;;;;;10430706;28;20050;-83
2022/08/23 04:37:27;;;;;;;1.42;1.05;;;;;;;;;;10398246;28;20421;-82
2022/08/23 04:42:33;;;;;;;1.45;1.10;;;;;;;;;;10398282;28;20137;-78
2022/08/23 04:47:40;;;;;;;1.25;0.85;;;;;;;;;;10430455;28;20624;-79
2022/08/23 04:52:46;;;;;;;1.60;1.02;;;;;;;;;;10430144;28;20096;-82
2022/08/23 04:57:51;;;;;;;1.33;0.82;;;;;;;;;;10397852;28;20525;-79
2022/08/23 05:03:00;;;;;;;1.00;0.80;;;;;;;;;;10387546;28;20048;-80
2022/08/23 05:08:05;;;;;;;5.85;0.90;;;;;;;;;;10430739;28;20052;-80
2022/08/23 05:13:10;;;;;;;2.90;1.25;;;;;;;;;;10398843;28;20048;-80
2022/08/23 05:18:14;;;;;;;1.25;0.93;;;;;;;;;;10397081;28;20045;-82
2022/08/23 05:23:19;;;;;;;1.73;1.20;;;;;;;;;;10422596;28;20057;-82
2022/08/23 05:28:31;;;;;;;3.35;1.15;;;;;;;;;;10430243;28;20041;-79
2022/08/23 05:33:37;;;;;;;4.82;1.10;;;;;;;;;;10463975;28;20049;-80
2022/08/23 05:38:41;;;;;;;1.33;0.90;;;;;;;;;;10486325;28;20037;-79
2022/08/23 05:43:47;;;;;;;1.48;0.95;;;;;;;;;;10456014;28;20049;-79
2022/08/23 05:48:51;;;;;;;1.52;0.80;;;;;;;;;;10436378;28;20037;-80
2022/08/23 05:54:00;;;;;;;1.33;0.80;;;;;;;;;;10438242;28;20482;-80
2022/08/23 05:59:08;;;;;;;1.40;1.00;;;;;;;;;;10437613;28;20052;-78
2022/08/23 06:04:12;;;;;;;1.00;0.68;;;;;;;;;;10430314;28;20089;-78
2022/08/23 06:09:18;;;;;;;3.40;1.10;;;;;;;;;;10433276;28;20128;-82
2022/08/23 06:14:23;;;;;;;1.60;0.75;;;;;;;;;;10449106;28;20040;-79
2022/08/23 06:19:27;;;;;;;1.40;0.88;;;;;;;;;;10438248;28;20037;-78
2022/08/23 06:24:52;;;;;;;4.73;0.60;;;;;;;;;;10446930;28;20045;-79
2022/08/23 06:30:07;;;;;;;1.63;1.05;;;;;;;;;;10503768;28;20554;-79
2022/08/23 06:35:10;;;;;;;4.00;0.90;;;;;;;;;;10446353;28;20459;-79
2022/08/23 06:40:30;;;;;;;1.10;0.70;;;;;;;;;;10438363;28;20461;-80
2022/08/23 06:45:53;;;;;;;0.85;0.63;;;;;;;;;;10459588;28;20060;-79
2022/08/23 06:50:57;;;;;;;1.13;0.75;;;;;;;;;;10443106;28;20040;-79
2022/08/23 06:56:07;;;;;;;0.80;0.50;;;;;;;;;;10442594;28;20044;-78
2022/08/23 07:01:32;;;;;;;0.88;0.57;;;;;;;;;;10468176;28;20047;-82
2022/08/23 07:07:00;;;;;;;1.17;0.75;;;;;;;;;;10425938;28;20037;-79
2022/08/23 07:12:04;;;;;;;1.45;0.90;;;;;;;;;;10434051;28;20044;-79
2022/08/23 07:17:10;;;;;;;5.55;0.60;;;;;;;;;;10456840;28;20062;-79
2022/08/23 07:22:13;;;;;;;0.83;0.50;;;;;;;;;;10456951;28;20060;-79
2022/08/23 07:27:18;;;;;;;1.42;0.80;;;;;;;;;;10425432;28;20439;-79
2022/08/23 07:32:36;;;;;;;0.82;0.52;;;;;;;;;;10434483;28;20064;-82
2022/08/23 07:37:56;;;;;;;1.42;0.80;;;;;;;;;;10439094;28;20052;-79
2022/08/23 07:43:05;;;;;;;1.83;0.57;;;;;;;;;;10457014;28;20053;-79
2022/08/23 07:48:11;;;;;;;2.80;0.80;;;;;;;;;;10462246;28;20040;-80
2022/08/23 07:53:28;;;;;;;1.35;0.90;;;;;;;;;;10421437;28;20048;-80
2022/08/23 07:58:32;;;;;;;2.20;0.45;;;;;;;;;;10441965;28;20045;-79
2022/08/23 08:04:07;;;;;;;1.88;0.70;;;;;;;;;;10421442;28;20405;-80
2022/08/23 08:09:15;;;;;;;1.65;0.90;;;;;;;;;;10428939;28;20049;-79
2022/08/23 08:14:19;;;;;;;1.05;0.50;;;;;;;;;;10436635;28;20098;-79
2022/08/23 08:19:29;;;;;;;1.27;0.60;;;;;;;;;;10444600;28;20053;-79
2022/08/23 08:24:51;;;;;;;1.52;0.60;;;;;;;;;;10445784;28;20041;-80
2022/08/23 08:29:55;;;;;;;1.90;0.80;;;;;;;;;;10427628;28;20064;-79
2022/08/23 08:34:59;;;;;;;1.38;0.77;;;;;;;;;;10437014;28;20075;-82
2022/08/23 08:40:04;;;;;;;1.60;0.93;;;;;;;;;;10428422;28;20072;-82
2022/08/23 08:45:15;;;;;;;0.75;0.60;;;;;;;;;;10458644;28;20778;-79
2022/08/23 08:50:25;;;;;;;0.80;0.63;;;;;;;;;;10469072;28;20525;-79
2022/08/23 08:55:38;;;;;;;1.25;0.68;;;;;;;;;;10457126;28;20048;-80
2022/08/23 09:00:43;;;;;;;2.05;0.80;;;;;;;;;;10438630;28;20478;-80
2022/08/23 09:05:54;;;;;;;0.80;0.70;;;;;;;;;;10418723;28;20072;-82
2022/08/23 09:11:05;;;;;;;1.58;0.75;;;;;;;;;;10427175;28;20391;-82
2022/08/23 09:16:23;;;;;;;1.05;0.75;;;;;;;;;;10452069;28;20170;-80
2022/08/23 09:21:31;;;;;;;0.95;0.60;;;;;;;;;;10430729;28;20044;-83
2022/08/23 09:26:37;;;;;;;0.60;0.60;;;;;;;;;;10452427;28;20049;-79
2022/08/23 09:31:43;;;;;;;1.40;0.68;;;;;;;;;;10462612;28;20051;-82
2022/08/23 09:36:49;;;;;;;1.92;1.05;;;;;;;;;;10417952;28;20565;-80
2022/08/23 09:41:54;;;;;;;2.75;0.75;;;;;;;;;;10418746;28;20041;-79
2022/08/23 09:47:07;;;;;;;1.50;0.65;;;;;;;;;;10451264;28;20041;-80
2022/08/23 09:52:26;;;;;;;0.60;0.60;;;;;;;;;;10422285;28;20052;-79
2022/08/23 09:57:36;;;;;;;1.52;0.90;;;;;;;;;;10442237;28;20037;-80
2022/08/23 10:02:40;;;;;;;1.93;0.80;;;;;;;;;;10480626;28;20047;-79
2022/08/23 10:07:59;;;;;;;1.48;1.00;;;;;;;;;;10459043;28;20044;-79
2022/08/23 10:13:06;;;;;;;0.77;0.77;;;;;;;;;;10469973;28;20043;-80
2022/08/23 10:18:20;;;;;;;1.20;0.68;;;;;;;;;;10440651;28;20052;-79
2022/08/23 10:23:37;;;;;;;1.90;0.90;;;;;;;;;;10472718;28;20044;-80
2022/08/23 10:34:30;;;;;;;1.08;0.60;;;;;;;;;;10465903;28;20052;-79
2022/08/23 10:39:41;;;;;;;1.03;0.87;;;;;;;;;;10456682;28;20045;-80
2022/08/23 10:44:51;;;;;;;1.20;0.80;;;;;;;;;;10465956;28;20045;-81
2022/08/23 10:49:58;;;;;;;1.52;0.70;;;;;;;;;;10459144;28;20044;-78
2022/08/23 10:55:23;;;;;;;0.93;0.75;;;;;;;;;;10445813;28;20163;-80
2022/08/23 11:00:29;;;;;;;1.95;0.68;;;;;;;;;;10445647;28;20120;-78
2022/08/23 11:05:37;;;;;;;1.23;0.68;;;;;;;;;;10445167;28;20504;-80
2022/08/23 11:10:51;;;;;;;3.00;1.02;;;;;;;;;;10470464;28;20049;-78
2022/08/23 11:16:01;;;;;;;0.98;0.70;;;;;;;;;;10453633;28;20108;-79
2022/08/23 11:21:24;;;;;;;1.10;0.77;;;;;;;;;;10494711;28;20045;-77
2022/08/23 11:27:03;;;;;;;2.90;0.70;;;;;;;;;;10444898;28;20067;-80
2022/08/23 11:32:36;;;;;;;0.70;0.70;;;;;;;;;;10446810;28;20055;-78
2022/08/23 11:37:55;;;;;;;1.75;0.60;;;;;;;;;;10469315;28;20522;-80
2022/08/23 11:43:09;;;;;;;0.80;0.80;;;;;;;;;;10501581;28;20093;-79
2022/08/23 11:48:17;;;;;;;1.30;0.70;;;;;;;;;;10468193;28;20075;-77
2022/08/23 11:53:39;;;;;;;1.23;0.70;;;;;;;;;;10485638;28;20051;-78
2022/08/23 11:59:10;;;;;;;1.73;0.80;;;;;;;;;;10467347;28;20416;-78
2022/08/23 12:04:31;;;;;;;1.83;1.02;;;;;;;;;;10466480;28;20049;-81
2022/08/23 12:09:56;;;;;;;1.25;0.55;;;;;;;;;;10500338;28;20214;-77
2022/08/23 12:15:04;;;;;;;0.98;0.50;;;;;;;;;;10485732;28;20052;-79
2022/08/23 12:20:14;;;;;;;3.20;1.20;;;;;;;;;;10484087;28;20044;-78
2022/08/23 12:25:20;;;;;;;1.77;0.90;;;;;;;;;;10500242;28;20062;-79
2022/08/23 12:30:30;;;;;;;1.63;0.80;;;;;;;;;;10484396;28;20048;-80
2022/08/23 12:35:40;;;;;;;1.92;0.73;;;;;;;;;;10466239;28;20036;-79
2022/08/23 12:40:47;;;;;;;0.88;0.52;;;;;;;;;;10485334;28;20037;-80
2022/08/23 12:45:54;;;;;;;1.20;0.93;;;;;;;;;;10495888;28;20029;-78
2022/08/23 12:50:59;;;;;;;1.75;0.80;;;;;;;;;;10460195;28;20123;-78
2022/08/23 12:56:05;;;;;;;2.20;1.30;;;;;;;;;;10442341;28;20045;-80
2022/08/23 13:01:22;;;;;;;1.30;0.80;;;;;;;;;;10443101;28;20077;-79
2022/08/23 13:06:30;;;;;;;0.80;0.70;;;;;;;;;;10478289;28;20049;-79
2022/08/23 13:11:36;;;;;;;1.05;0.60;;;;;;;;;;10435119;28;20037;-79
2022/08/23 13:16:44;;;;;;;0.70;0.70;;;;;;;;;;10416499;28;20402;-79
2022/08/23 13:21:48;;;;;;;1.73;0.52;;;;;;;;;;10451955;28;20047;-80
2022/08/23 13:26:53;;;;;;;0.95;0.70;;;;;;;;;;10424351;28;20045;-79
2022/08/23 13:32:01;;;;;;;1.27;0.70;;;;;;;;;;10415803;28;20569;-77
2022/08/23 13:37:11;;;;;;;3.95;0.80;;;;;;;;;;10425978;28;20045;-76
2022/08/23 13:42:24;;;;;;;0.98;0.60;;;;;;;;;;10444594;28;20041;-81
2022/08/23 13:47:29;;;;;;;2.03;0.77;;;;;;;;;;10428408;28;20052;-80
2022/08/23 13:52:35;;;;;;;2.08;1.08;;;;;;;;;;10416975;28;20037;-77
2022/08/23 13:57:59;;;;;;;1.15;0.70;;;;;;;;;;10417619;28;20742;-78
2022/08/23 14:03:04;;;;;;;0.80;0.47;;;;;;;;;;10422532;28;20056;-81
2022/08/23 14:08:08;;;;;;;1.30;0.65;;;;;;;;;;10428390;28;20375;-81
2022/08/23 14:13:12;;;;;;;1.95;1.08;;;;;;;;;;10428435;28;20059;-80
2022/08/23 14:18:17;;;;;;;1.15;0.75;;;;;;;;;;10455172;28;20040;-79
2022/08/23 14:23:21;;;;;;;0.90;0.60;;;;;;;;;;10450491;28;20052;-80
2022/08/23 14:28:30;;;;;;;1.33;0.63;;;;;;;;;;10395380;28;20447;-77
2022/08/23 14:33:35;;;;;;;0.80;0.52;;;;;;;;;;10422829;28;20095;-80
2022/08/23 14:38:39;;;;;;;1.38;0.50;;;;;;;;;;10428857;28;20401;-80
2022/08/23 14:43:42;;;;;;;0.67;0.47;;;;;;;;;;10446853;28;20047;-80
2022/08/23 14:48:49;;;;;;;1.15;0.57;;;;;;;;;;10448356;28;20215;-80
2022/08/23 14:53:53;;;;;;;1.75;0.50;;;;;;;;;;10454345;28;20124;-80
2022/08/23 14:58:57;;;;;;;0.70;0.50;;;;;;;;;;10423117;28;20044;-80
2022/08/23 15:04:02;;;;;;;1.13;0.40;;;;;;;;;;10436947;28;20284;-79
2022/08/23 15:09:06;;;;;;;3.15;1.20;;;;;;;;;;10445821;28;20504;-81
2022/08/23 15:14:09;;;;;;;1.70;1.08;;;;;;;;;;10428218;28;20059;-79
2022/08/23 15:19:14;;;;;;;2.20;1.13;;;;;;;;;;10445788;28;20048;-77
2022/08/23 15:24:18;;;;;;;1.60;1.10;;;;;;;;;;10470817;28;20101;-80
2022/08/23 15:29:27;;;;;;;1.63;1.00;;;;;;;;;;10452584;28;20051;-79
2022/08/23 15:34:32;;;;;;;1.27;0.70;;;;;;;;;;10487812;28;20043;-79
2022/08/23 15:39:35;;;;;;;2.17;0.65;;;;;;;;;;10482414;28;20049;-79
2022/08/23 15:44:38;;;;;;;1.85;0.80;;;;;;;;;;10428534;28;20296;-79
2022/08/23 15:49:43;;;;;;;1.80;1.08;;;;;;;;;;10442478;28;20145;-79
2022/08/23 15:54:49;;;;;;;7.00;1.70;;;;;;;;;;10438304;28;20519;-79
2022/08/23 15:59:53;;;;;;;1.15;0.77;;;;;;;;;;10437745;28;20100;-79
2022/08/23 16:04:58;;;;;;;0.73;0.60;;;;;;;;;;10487231;28;20408;-79
2022/08/23 16:10:05;;;;;;;1.67;0.52;;;;;;;;;;10443754;28;20052;-79
2022/08/23 16:15:09;;;;;;;1.88;0.88;;;;;;;;;;10462187;28;20094;-79
2022/08/23 16:20:14;;;;;;;1.40;0.98;;;;;;;;;;10472074;28;20542;-79
2022/08/23 16:25:18;;;;;;;0.88;0.63;;;;;;;;;;10453883;28;20049;-79
2022/08/23 16:30:21;;;;;;;0.82;0.60;;;;;;;;;;10446183;28;20041;-79
2022/08/23 16:35:27;;;;;;;0.68;0.47;;;;;;;;;;10489925;28;20041;-79
2022/08/23 16:40:31;;;;;;;1.50;0.80;;;;;;;;;;10458035;28;20076;-79
2022/08/23 16:45:34;;;;;;;1.48;1.10;;;;;;;;;;10474278;28;20043;-79
2022/08/23 16:50:40;;;;;;;1.77;0.90;;;;;;;;;;10429968;28;20075;-79
2022/08/23 16:55:44;;;;;;;1.10;0.70;;;;;;;;;;10485801;28;20040;-80
2022/08/23 17:00:49;;;;;;;1.92;1.10;;;;;;;;;;10456247;28;20098;-82
2022/08/23 17:05:54;;;;;;;2.00;1.30;;;;;;;;;;10479437;28;20056;-79
2022/08/23 17:10:58;;;;;;;1.67;1.00;;;;;;;;;;10448883;28;20420;-80
2022/08/23 17:16:05;;;;;;;0.90;0.60;;;;;;;;;;10481917;28;20040;-80
2022/08/23 17:21:10;;;;;;;1.17;0.93;;;;;;;;;;10460118;28;20053;-80
2022/08/23 17:26:13;;;;;;;;;;;;;;;;;;10459027;28;20051;-78
2022/08/23 17:31:18;;;;;;;1.85;0.52;;;;;;;;;;10471712;28;19992;-80
2022/08/23 17:36:26;;;;;;;;;;;;;;;;;;10458161;28;20458;-82
2022/08/23 17:41:30;;;;;;;1.20;0.70;;;;;;;;;;10450298;28;19920;-81
2022/08/23 17:46:34;;;;;;;1.02;0.60;;;;;;;;;;10485636;28;20089;-80
2022/08/23 17:51:40;;;;;;;0.70;0.50;;;;;;;;;;10469310;28;20064;-79
2022/08/23 17:56:44;;;;;;;2.83;0.95;;;;;;;;;;10432293;28;20907;-81
2022/08/23 18:01:48;;;;;;;1.93;0.90;;;;;;;;;;10455659;28;20071;-81
2022/08/23 18:06:52;;;;;;;1.13;0.73;;;;;;;;;;10447466;28;20041;-82
2022/08/23 18:11:56;;;;;;;1.63;0.52;;;;;;;;;;10479493;28;20040;-80
2022/08/23 18:17:00;;;;;;;2.60;0.68;;;;;;;;;;10473519;28;20246;-79
2022/08/23 18:22:05;;;;;;;0.73;0.68;;;;;;;;;;10463906;28;20061;-79
2022/08/23 18:32:26;;;;;;;1.90;0.55;;;;;;;;;;10418577;28;20439;-79
2022/08/23 18:37:32;;;;;;;1.40;0.80;;;;;;;;;;10431424;28;20408;-79
2022/08/23 18:42:35;;;;;;;1.15;0.80;;;;;;;;;;10457863;28;20045;-79
2022/08/23 18:47:40;;;;;;;2.30;0.90;;;;;;;;;;10455232;28;20528;-79
2022/08/23 18:52:45;;;;;;;2.45;1.05;;;;;;;;;;10462928;28;20522;-79
2022/08/23 18:57:48;;;;;;;3.08;1.13;;;;;;;;;;10458105;28;20051;-79
2022/08/23 19:02:52;;;;;;;2.40;0.90;;;;;;;;;;10428977;28;20706;-79
2022/08/23 19:07:58;;;;;;;4.60;1.20;;;;;;;;;;10474808;28;20048;-79
2022/08/23 19:13:01;;;;;;;;;;;;;;;;;;10462494;28;20036;-80
2022/08/23 19:18:05;;;;;;;2.25;0.80;;;;;;;;;;10472068;28;19920;-79
2022/08/23 19:23:10;;;;;;;2.40;1.00;;;;;;;;;;10451424;28;20428;-78
2022/08/23 19:28:18;;;;;;;1.08;0.90;;;;;;;;;;10477397;28;20075;-79
2022/08/23 19:33:21;;;;;;;0.95;0.80;;;;;;;;;;10452709;28;20045;-79
2022/08/23 19:38:30;;;;;;;1.80;0.80;;;;;;;;;;10488059;28;20488;-83
2022/08/23 19:43:35;;;;;;;2.20;0.80;;;;;;;;;;10483566;28;20037;-79
2022/08/23 19:48:38;;;;;;;2.58;0.82;;;;;;;;;;10475930;28;20177;-77
2022/08/23 19:54:02;;;;;;;2.22;0.82;;;;;;;;;;10476339;28;20808;-80
2022/08/23 19:59:08;;;;;;;2.80;0.98;;;;;;;;;;10458672;28;20052;-80
2022/08/23 20:04:12;;;;;;;4.93;1.50;;;;;;;;;;10466714;28;20127;-80
2022/08/23 20:09:17;;;;;;;1.35;0.80;;;;;;;;;;10495990;28;20048;-79
2022/08/23 20:14:22;;;;;;;0.90;0.80;;;;;;;;;;10454103;22;20045;-79
2022/08/23 20:19:27;;;;;;;0.93;0.68;;;;;;;;;;10451807;28;20071;-79
2022/08/23 20:24:32;;;;;;;2.57;0.83;;;;;;;;;;10468340;28;20037;-79
2022/08/23 20:29:51;;;;;;;2.03;1.00;;;;;;;;;;10485764;28;20142;-79
2022/08/23 20:34:55;;;;;;;1.50;1.02;;;;;;;;;;10466386;28;20051;-79
2022/08/23 20:40:01;;;;;;;1.27;0.77;;;;;;;;;;10469548;28;20048;-79
2022/08/23 20:45:05;;;;;;;1.25;0.80;;;;;;;;;;10485209;28;20479;-79
2022/08/23 20:50:09;;;;;;;1.20;0.80;;;;;;;;;;10487092;28;20109;-79
2022/08/23 20:55:14;;;;;;;1.95;1.10;;;;;;;;;;10485052;28;20104;-79
2022/08/23 21:00:18;;;;;;;1.03;0.77;;;;;;;;;;10490850;28;20454;-79
2022/08/23 21:05:22;;;;;;;2.88;1.00;;;;;;;;;;10456913;28;20111;-79
2022/08/23 21:10:26;;;;;;;1.17;0.90;;;;;;;;;;10493987;28;20056;-79
2022/08/23 21:15:30;;;;;;;4.30;1.15;;;;;;;;;;10504197;28;20040;-79
2022/08/23 21:20:49;;;;;;;2.22;1.02;;;;;;;;;;10503112;28;20066;-77
2022/08/23 21:26:06;;;;;;;1.70;0.80;;;;;;;;;;10470899;28;20083;-78
2022/08/23 21:31:12;;;;;;;3.88;1.05;;;;;;;;;;10463079;28;20057;-79
2022/08/23 21:36:17;;;;;;;2.65;1.13;;;;;;;;;;10482010;28;20124;-78
2022/08/23 21:41:31;;;;;;;3.20;1.00;;;;;;;;;;10463383;28;20128;-80
2022/08/23 21:46:35;;;;;;;1.20;0.80;;;;;;;;;;10467601;28;20052;-76
2022/08/23 21:51:38;;;;;;;1.42;0.70;;;;;;;;;;10488920;28;20142;-79
2022/08/23 21:56:44;;;;;;;1.20;0.80;;;;;;;;;;10469134;28;20045;-80
2022/08/23 22:01:49;;;;;;;1.13;1.00;;;;;;;;;;10497056;28;20044;-81
2022/08/23 22:06:52;;;;;;;1.08;0.90;;;;;;;;;;10469577;28;20127;-79
2022/08/23 22:11:57;;;;;;;2.45;0.98;;;;;;;;;;10469376;28;20093;-77
2022/08/23 22:17:01;;;;;;;2.33;0.97;;;;;;;;;;10487818;28;20040;-77
2022/08/23 22:22:04;;;;;;;2.60;1.00;;;;;;;;;;10470044;28;20753;-80
2022/08/23 22:27:09;;;;;;;1.65;1.13;;;;;;;;;;10488858;28;20078;-80
2022/08/23 22:32:13;;;;;;;4.28;0.90;;;;;;;;;;10510256;28;20045;-79
2022/08/23 22:37:16;;;;;;;1.20;1.00;;;;;;;;;;10469558;28;20474;-78
2022/08/23 22:42:21;;;;;;;0.98;0.90;;;;;;;;;;10469504;28;20492;-79
2022/08/23 22:47:24;;;;;;;1.27;0.90;;;;;;;;;;10469115;28;20048;-78
2022/08/23 22:52:28;;;;;;;2.17;1.00;;;;;;;;;;10512312;28;20131;-79
2022/08/23 22:57:33;;;;;;;1.83;0.95;;;;;;;;;;10467886;28;20467;-82
2022/08/23 23:02:36;;;;;;;1.05;0.88;;;;;;;;;;10486856;28;20165;-80
2022/08/23 23:13:02;;;;;;;1.55;1.08;;;;;;;;;;10460955;28;20056;-79
2022/08/23 23:18:05;;;;;;;1.88;1.38;;;;;;;;;;10494307;28;20691;-77
2022/08/23 23:23:12;;;;;;;1.52;0.93;;;;;;;;;;10486670;28;20051;-76
2022/08/23 23:28:20;;;;;;;1.70;1.02;;;;;;;;;;10493147;28;20073;-78
2022/08/23 23:33:24;;;;;;;1.40;1.02;;;;;;;;;;10491577;28;20044;-78
2022/08/23 23:38:28;;;;;;;1.83;0.93;;;;;;;;;;10527132;28;20527;-78
2022/08/23 23:43:35;;;;;;;1.25;1.00;;;;;;;;;;10483456;28;20050;-78
2022/08/23 23:48:42;;;;;;;1.52;1.00;;;;;;;;;;10469128;28;20044;-75
2022/08/23 23:53:46;;;;;;;2.33;0.90;;;;;;;;;;10485191;28;20048;-79
2022/08/23 23:58:52;;;;;;;2.00;1.40;;;;;;;;;;10484272;28;20052;-78
